Ottoman Nobility — TCDA2 — position and weather

sailwx.info

Track history (hours):
 
Tides and Currents Weather Stations Pressure Air Temp Water Temp Dewpoint Dewpoint Depression Visibility Wind Speed Wind Dir Waves Ship Positions

Ottoman Nobility

Last reported at 2016-Jul-19 04:33 UTC. Time now 2016-Jul-26 00:44 UTC.
Position S 36°23' E 031°08'.

; draft 15.3 m.

Type: Ship. MMSI: 271000773.

Date/timePositionNaut miles runAvg speedWind from/ knotsBaromVisibWave heightAir tempDewpointWater temp
2016-Jul-19 04:33S 36°23' E 031°08'1615.3
2016-Jul-19 03:33S 36°23' E 030°48'1515.5
2016-Jul-19 02:33S 36°22' E 030°29'1515.0
2016-Jul-19 01:33S 36°21' E 030°11'1515.2
2016-Jul-19 00:34S 36°20' E 029°52'1515.2
2016-Jul-18 23:33S 36°18' E 029°33'1515.5
2016-Jul-18 22:33S 36°17' E 029°14'54614.3
2016-Jul-17 08:29S 34°26' E 018°19'1713.6
2016-Jul-17 07:17S 34°11' E 018°12'1013.5
2016-Jul-17 06:33S 34°01' E 018°10'11 5.6
2016-Jul-17 04:33S 33°51' E 018°15'1 1.3
2016-Jul-17 03:33S 33°50' E 018°13'5 4.6
2016-Jul-17 02:33S 33°49' E 018°08'1414.0
2016-Jul-17 01:32S 33°41' E 017°54'  
Track history (hours):
 
Tides and Currents Weather Stations Pressure Air Temp Water Temp Dewpoint Dewpoint Depression Visibility Wind Speed Wind Dir Waves Ship Positions

Ottoman Nobility

Last reported at 2016-Jul-19 04:33 UTC. Time now 2016-Jul-26 00:44 UTC.
Position S 36°23' E 031°08'.

; draft 15.3 m.

Type: Ship. MMSI: 271000773.

Date/timePositionNaut miles runAvg speedWind from/ knotsBaromVisibWave heightAir tempDewpointWater temp
2016-Jul-19 04:33S 36°23' E 031°08'1615.3
2016-Jul-19 03:33S 36°23' E 030°48'1515.5
2016-Jul-19 02:33S 36°22' E 030°29'1515.0
2016-Jul-19 01:33S 36°21' E 030°11'1515.2
2016-Jul-19 00:34S 36°20' E 029°52'1515.2
2016-Jul-18 23:33S 36°18' E 029°33'1515.5
2016-Jul-18 22:33S 36°17' E 029°14'54614.3
2016-Jul-17 08:29S 34°26' E 018°19'1713.6
2016-Jul-17 07:17S 34°11' E 018°12'1013.5
2016-Jul-17 06:33S 34°01' E 018°10'11 5.6
2016-Jul-17 04:33S 33°51' E 018°15'1 1.3
2016-Jul-17 03:33S 33°50' E 018°13'5 4.6
2016-Jul-17 02:33S 33°49' E 018°08'1414.0
2016-Jul-17 01:32S 33°41' E 017°54'  

Dump ship's entire track history